createdAt,value
2023-03-05T00:26:50.921Z,921.00
2023-03-05T00:27:50.780Z,921.00
2023-03-05T00:28:50.648Z,920.00
2023-03-05T00:29:50.517Z,918.00
2023-03-05T00:30:50.431Z,916.00
2023-03-05T00:31:50.256Z,915.00
2023-03-05T00:32:50.113Z,914.00
2023-03-05T00:33:49.995Z,914.00
2023-03-05T00:34:49.838Z,916.00
2023-03-05T00:35:49.728Z,916.00
2023-03-05T00:36:49.638Z,914.00
2023-03-05T00:37:50.307Z,916.00
2023-03-05T00:38:49.313Z,917.00
2023-03-05T00:39:49.179Z,915.00
2023-03-05T00:40:49.041Z,918.00
2023-03-05T00:41:48.905Z,917.00
2023-03-05T00:42:48.776Z,919.00
2023-03-05T00:43:48.648Z,917.00
2023-03-05T00:44:48.506Z,917.00
2023-03-05T00:45:49.306Z,918.00
2023-03-05T00:46:48.353Z,916.00
2023-03-05T00:47:48.114Z,916.00
2023-03-05T00:48:47.992Z,916.00
2023-03-05T00:49:47.841Z,915.00
2023-03-05T01:40:41.169Z,899.00
2023-03-05T01:42:40.827Z,896.00
2023-03-05T01:43:40.717Z,896.00
2023-03-05T01:44:40.591Z,897.00
2023-03-05T01:45:40.480Z,899.00
2023-03-05T01:46:40.352Z,900.00
2023-03-05T01:47:40.173Z,898.00
2023-03-05T01:48:40.049Z,899.00
2023-03-05T01:49:39.937Z,897.00
2023-03-05T01:50:39.787Z,898.00
2023-03-05T01:51:39.658Z,900.00
2023-03-05T01:52:39.516Z,898.00
2023-03-05T01:53:39.405Z,894.00
2023-03-05T01:54:39.243Z,894.00
2023-03-05T01:55:39.117Z,896.00
2023-03-05T01:56:38.974Z,894.00
2023-03-05T01:57:38.837Z,894.00
2023-03-05T01:58:38.705Z,893.00
2023-03-05T01:59:38.577Z,895.00
2023-03-05T02:00:38.463Z,895.00
2023-03-05T02:01:38.407Z,895.00
2023-03-05T02:02:38.185Z,892.00
2023-03-05T02:03:38.176Z,891.00
2023-03-05T02:04:37.943Z,890.00
2023-03-05T02:05:37.788Z,890.00
2023-03-05T03:01:30.744Z,882.00
2023-03-05T03:02:30.582Z,883.00
2023-03-05T03:03:30.478Z,881.00
2023-03-05T03:04:30.311Z,881.00
2023-03-05T03:05:30.192Z,884.00
2023-03-05T03:06:30.823Z,880.00
2023-03-05T03:07:29.926Z,879.00
2023-03-05T03:08:29.808Z,877.00
2023-03-05T03:09:29.667Z,876.00
2023-03-05T03:10:29.542Z,876.00
2023-03-05T03:11:29.424Z,873.00
2023-03-05T03:12:29.287Z,873.00
2023-03-05T03:13:29.169Z,874.00
2023-03-05T03:14:29.048Z,874.00
2023-03-05T03:15:28.929Z,873.00
2023-03-05T03:16:28.802Z,869.00
2023-03-05T03:17:28.658Z,871.00
2023-03-05T03:18:28.547Z,872.00
2023-03-05T03:19:28.418Z,870.00
2023-03-05T03:20:28.312Z,869.00
2023-03-05T03:21:28.185Z,871.00
2023-03-05T03:22:28.060Z,869.00
2023-03-05T03:23:28.338Z,869.00
2023-03-05T03:24:27.797Z,867.00
2023-03-05T03:26:27.562Z,866.00
2023-03-05T03:27:27.480Z,866.00
2023-03-05T03:28:27.308Z,865.00
2023-03-05T03:29:27.184Z,866.00
2023-03-05T03:30:27.070Z,863.00
2023-03-05T03:31:26.949Z,864.00
2023-03-05T03:32:26.864Z,865.00
2023-03-05T03:33:26.696Z,863.00
2023-03-05T03:34:26.576Z,864.00
2023-03-05T03:35:26.452Z,865.00
2023-03-05T03:36:26.337Z,864.00
2023-03-05T03:37:26.217Z,866.00
2023-03-05T03:38:26.104Z,867.00
2023-03-05T03:39:25.962Z,870.00
2023-03-05T03:40:25.856Z,870.00
2023-03-05T03:41:25.762Z,871.00
2023-03-05T03:42:25.591Z,870.00
2023-03-05T03:43:25.464Z,873.00
2023-03-05T03:44:25.370Z,876.00
2023-03-05T03:45:25.342Z,877.00
2023-03-05T03:46:25.165Z,876.00
2023-03-05T03:47:24.982Z,875.00
2023-03-05T03:48:24.859Z,875.00
2023-03-05T03:49:25.350Z,874.00
2023-03-05T03:50:24.605Z,873.00
2023-03-05T03:51:24.486Z,873.00
2023-03-05T03:52:24.376Z,871.00
2023-03-05T03:53:24.247Z,870.00
2023-03-05T03:54:24.348Z,871.00
2023-03-05T03:55:24.008Z,870.00
2023-03-05T03:56:23.882Z,869.00
2023-03-05T03:57:23.759Z,869.00
2023-03-05T03:58:23.742Z,872.00
2023-03-05T03:59:23.529Z,869.00
2023-03-05T04:00:23.403Z,869.00
2023-03-05T04:01:23.292Z,869.00
2023-03-05T04:02:23.166Z,868.00
2023-03-05T04:03:23.040Z,866.00
2023-03-05T04:04:22.918Z,867.00
2023-03-05T04:05:22.782Z,868.00
2023-03-05T04:06:22.691Z,869.00
2023-03-05T04:07:22.605Z,869.00
2023-03-05T04:08:22.507Z,866.00
2023-03-05T04:09:22.377Z,865.00
2023-03-05T04:10:22.175Z,864.00
2023-03-05T04:11:22.066Z,865.00
2023-03-05T04:12:21.947Z,867.00
2023-03-05T04:13:21.856Z,867.00
2023-03-05T04:14:21.701Z,866.00
2023-03-05T04:15:21.576Z,869.00
2023-03-05T04:16:21.552Z,867.00
2023-03-05T04:17:21.320Z,866.00
2023-03-05T04:18:21.228Z,868.00
2023-03-05T04:19:21.107Z,871.00
2023-03-05T04:20:20.978Z,872.00
2023-03-05T04:21:20.852Z,869.00
2023-03-05T04:22:21.356Z,866.00
2023-03-05T04:23:20.609Z,867.00
2023-03-05T04:24:20.498Z,864.00
2023-03-05T04:25:20.373Z,867.00
2023-03-05T04:26:20.269Z,867.00
2023-03-05T04:27:20.159Z,868.00
2023-03-05T04:28:20.084Z,868.00
2023-03-05T04:29:19.923Z,864.00
2023-03-05T04:30:19.797Z,861.00
2023-03-05T04:31:19.863Z,859.00
2023-03-05T04:32:19.569Z,860.00
2023-03-05T04:33:19.440Z,861.00
2023-03-05T04:34:19.358Z,860.00
2023-03-05T04:47:17.751Z,850.00
2023-03-05T05:14:14.604Z,847.00
2023-03-05T05:15:14.514Z,845.00
2023-03-05T05:16:14.429Z,840.00
2023-03-05T05:17:14.339Z,836.00
2023-03-05T05:18:14.148Z,838.00
2023-03-05T05:19:14.121Z,838.00
2023-03-05T05:20:13.954Z,839.00
2023-03-05T05:21:13.847Z,843.00
2023-03-05T05:22:13.747Z,842.00
2023-03-05T05:23:13.608Z,842.00
2023-03-05T05:24:13.554Z,844.00
2023-03-05T05:25:13.388Z,846.00
2023-03-05T05:26:13.261Z,846.00
2023-03-05T05:27:13.147Z,847.00
2023-03-05T05:28:13.055Z,846.00
2023-03-05T05:29:12.923Z,847.00
2023-03-05T05:30:12.844Z,847.00
2023-03-05T05:31:12.788Z,844.00
2023-03-05T05:32:12.617Z,841.00
2023-03-05T05:33:12.494Z,840.00
2023-03-05T05:34:12.386Z,838.00
2023-03-05T05:35:12.287Z,839.00
2023-03-05T05:36:12.188Z,841.00
2023-03-05T05:37:12.077Z,839.00
2023-03-05T05:38:11.954Z,843.00
2023-03-05T05:39:11.918Z,845.00
2023-03-05T05:40:12.454Z,844.00
2023-03-05T05:41:11.654Z,843.00
2023-03-05T05:42:11.525Z,842.00
2023-03-05T05:43:11.428Z,843.00
2023-03-05T05:44:11.320Z,842.00
2023-03-05T05:45:11.298Z,842.00
2023-03-05T05:46:11.204Z,841.00
2023-03-05T05:47:10.984Z,842.00
2023-03-05T05:48:10.863Z,841.00
2023-03-05T05:49:10.752Z,839.00
2023-03-05T05:50:10.636Z,839.00
2023-03-05T05:51:10.524Z,838.00
2023-03-05T05:52:10.404Z,837.00
2023-03-05T05:53:10.297Z,839.00
2023-03-05T05:54:10.387Z,842.00
2023-03-05T05:55:10.091Z,841.00
2023-03-05T05:56:09.979Z,842.00
2023-03-05T05:57:09.862Z,844.00
2023-03-05T05:58:09.771Z,845.00
2023-03-05T05:59:09.632Z,844.00
2023-03-05T06:00:10.376Z,842.00
2023-03-05T06:01:09.438Z,842.00
2023-03-05T06:02:09.351Z,843.00
2023-03-05T06:03:09.327Z,844.00
2023-03-05T06:04:09.089Z,844.00
2023-03-05T06:05:08.978Z,843.00
2023-03-05T06:06:08.870Z,841.00
2023-03-05T06:07:09.373Z,839.00
2023-03-05T06:08:08.636Z,834.00
2023-03-05T06:09:08.524Z,832.00
2023-03-05T06:10:08.411Z,831.00
2023-03-05T06:11:08.318Z,832.00
2023-03-05T06:16:07.931Z,834.00
2023-03-05T07:47:58.091Z,813.00
2023-03-05T07:48:57.937Z,811.00
2023-03-05T07:49:57.858Z,809.00
2023-03-05T07:50:57.729Z,809.00
2023-03-05T09:14:49.072Z,794.00
2023-03-05T09:15:48.920Z,791.00
2023-03-05T09:16:48.794Z,790.00
2023-03-05T09:17:48.691Z,793.00
2023-03-05T09:18:48.605Z,794.00
2023-03-05T09:19:48.480Z,793.00
2023-03-05T09:20:48.367Z,793.00
2023-03-05T09:21:48.254Z,789.00
2023-03-05T09:22:48.142Z,790.00
2023-03-05T09:23:48.075Z,786.00
2023-03-05T09:24:47.917Z,785.00
2023-03-05T09:25:47.785Z,785.00
2023-03-05T10:36:40.050Z,761.00
2023-03-05T10:38:39.849Z,760.00
2023-03-05T10:42:39.426Z,761.00
2023-03-05T10:43:39.311Z,759.00
2023-03-05T10:44:39.220Z,759.00
2023-03-05T10:45:39.204Z,760.00
2023-03-05T10:46:39.069Z,763.00
2023-03-05T10:47:38.866Z,764.00
2023-03-05T10:48:38.773Z,763.00
2023-03-05T10:49:38.639Z,760.00
2023-03-05T10:50:38.558Z,762.00
2023-03-05T10:51:38.432Z,760.00
2023-03-05T10:52:38.961Z,759.00
2023-03-05T10:53:38.207Z,759.00
2023-03-05T10:54:38.090Z,761.00
2023-03-05T10:55:37.978Z,762.00
2023-03-05T10:56:37.840Z,761.00
2023-03-05T12:02:30.696Z,743.00
2023-03-05T12:03:30.655Z,741.00
2023-03-05T12:04:30.456Z,741.00
2023-03-05T12:05:30.361Z,739.00
2023-03-05T12:06:30.257Z,741.00
2023-03-05T12:07:30.151Z,742.00
2023-03-05T12:08:30.096Z,743.00
2023-03-05T12:09:29.997Z,741.00
2023-03-05T12:10:29.845Z,739.00
2023-03-05T12:11:29.754Z,740.00
2023-03-05T12:12:29.628Z,737.00
2023-03-05T12:13:29.539Z,736.00
2023-03-05T12:14:29.421Z,735.00
2023-03-05T12:15:29.417Z,736.00
2023-03-05T12:16:29.367Z,739.00
2023-03-05T12:17:29.141Z,740.00
2023-03-05T12:18:29.053Z,742.00
2023-03-05T12:19:28.937Z,743.00
2023-03-05T12:20:28.882Z,742.00
2023-03-05T12:21:28.748Z,742.00
2023-03-05T12:22:28.630Z,742.00
2023-03-05T12:23:28.550Z,742.00
2023-03-05T12:24:28.703Z,745.00
2023-03-05T12:25:28.356Z,743.00
2023-03-05T12:26:28.252Z,743.00
2023-03-05T12:27:28.155Z,742.00
2023-03-05T12:28:28.146Z,738.00
2023-03-05T12:29:27.957Z,737.00
2023-03-05T12:30:27.833Z,739.00
2023-03-05T12:31:27.797Z,736.00
2023-03-05T13:48:19.201Z,706.00
2023-03-05T13:49:19.119Z,702.00
2023-03-05T13:50:19.099Z,703.00
2023-03-05T13:51:19.089Z,702.00
2023-03-05T13:52:18.877Z,701.00
2023-03-05T13:53:19.015Z,698.00
2023-03-05T13:54:18.903Z,696.00
2023-03-05T13:55:19.246Z,699.00
2023-03-05T13:56:18.310Z,698.00
2023-03-05T13:57:19.006Z,697.00
2023-03-05T13:58:18.080Z,696.00
2023-03-05T13:59:17.976Z,696.00
2023-03-05T14:00:18.078Z,696.00
2023-03-05T14:01:18.232Z,698.00
2023-03-05T14:02:18.127Z,697.00
2023-03-05T14:03:17.568Z,698.00
2023-03-05T14:04:18.134Z,699.00
2023-03-05T14:05:17.716Z,702.00
2023-03-05T14:06:17.239Z,702.00
2023-03-05T14:07:17.125Z,699.00
2023-03-05T14:08:17.014Z,702.00
2023-03-05T14:09:16.889Z,704.00
2023-03-05T14:10:16.911Z,704.00
2023-03-05T14:11:16.657Z,702.00
2023-03-05T14:12:16.620Z,700.00
2023-03-05T14:13:16.955Z,701.00
2023-03-05T14:14:16.701Z,700.00
2023-03-05T14:15:16.828Z,701.00
2023-03-05T14:16:16.139Z,703.00
2023-03-05T14:17:16.012Z,703.00
2023-03-05T14:18:15.896Z,703.00
2023-03-05T14:19:15.786Z,707.00
2023-03-05T14:20:15.739Z,705.00
2023-03-05T14:21:15.551Z,704.00
2023-03-05T14:22:15.439Z,702.00
2023-03-05T14:23:25.148Z,705.00
2023-03-05T14:24:17.020Z,706.00
2023-03-05T14:25:14.991Z,705.00
2023-03-05T14:26:14.839Z,705.00
2023-03-05T14:27:14.660Z,701.00
2023-03-05T14:28:14.488Z,699.00
2023-03-05T14:29:14.334Z,695.00
2023-03-05T14:30:14.151Z,696.00
2023-03-05T14:31:14.023Z,696.00
2023-03-05T14:32:13.848Z,698.00
2023-03-05T14:33:13.641Z,697.00
2023-03-05T14:34:13.519Z,695.00
2023-03-05T14:35:13.398Z,695.00
2023-03-05T14:36:13.296Z,695.00
2023-03-05T14:37:13.183Z,696.00
2023-03-05T14:38:14.021Z,696.00
2023-03-05T14:39:12.960Z,694.00
2023-03-05T14:40:12.882Z,695.00
2023-03-05T14:41:12.740Z,694.00
2023-03-05T14:42:12.656Z,696.00
2023-03-05T14:43:12.524Z,694.00
2023-03-05T14:44:12.488Z,692.00
2023-03-05T14:45:12.304Z,691.00
2023-03-05T14:46:13.195Z,691.00
2023-03-05T14:47:12.070Z,693.00
2023-03-05T14:48:11.971Z,692.00
2023-03-05T14:49:11.871Z,694.00
2023-03-05T14:50:11.756Z,694.00
2023-03-05T14:51:11.652Z,694.00
2023-03-05T14:52:11.548Z,694.00
2023-03-05T14:53:11.415Z,695.00
2023-03-05T14:54:11.310Z,693.00
2023-03-05T14:55:11.213Z,692.00
2023-03-05T14:57:10.994Z,691.00
2023-03-05T14:58:11.036Z,687.00
2023-03-05T14:59:10.784Z,686.00
2023-03-05T15:00:10.676Z,691.00
2023-03-05T15:01:10.652Z,691.00
2023-03-05T15:03:11.035Z,692.00
2023-03-05T15:04:10.258Z,695.00
2023-03-05T15:05:10.206Z,696.00
2023-03-05T15:06:10.035Z,697.00
2023-03-05T15:07:09.915Z,695.00
2023-03-05T15:20:08.447Z,688.00
2023-03-05T15:21:08.349Z,689.00
2023-03-05T15:22:08.230Z,690.00
2023-03-05T15:23:08.133Z,692.00
2023-03-05T15:24:10.138Z,690.00
2023-03-05T15:25:07.818Z,690.00
2023-03-05T16:11:00.158Z,689.00
2023-03-05T16:12:00.014Z,689.00
2023-03-05T16:12:59.959Z,692.00
2023-03-05T16:13:59.774Z,692.00
2023-03-05T16:14:59.657Z,692.00
2023-03-05T16:15:59.564Z,689.00
2023-03-05T16:16:59.420Z,687.00
2023-03-05T16:17:59.285Z,688.00
2023-03-05T16:18:59.176Z,685.00
2023-03-05T16:19:59.072Z,683.00
2023-03-05T16:20:58.954Z,679.00
2023-03-05T16:21:58.847Z,679.00
2023-03-05T16:22:58.737Z,678.00
2023-03-05T16:23:58.590Z,676.00
2023-03-05T16:24:58.470Z,676.00
2023-03-05T16:25:59.649Z,676.00
2023-03-05T16:26:58.247Z,673.00
2023-03-05T16:27:58.138Z,674.00
2023-03-05T16:28:58.075Z,674.00
2023-03-05T16:29:57.907Z,676.00
2023-03-05T16:30:58.065Z,678.00
2023-03-05T17:52:48.184Z,662.00
2023-03-05T17:53:48.052Z,661.00
2023-03-05T17:54:47.942Z,662.00
2023-03-05T17:55:47.826Z,660.00
2023-03-05T18:36:43.106Z,662.00
2023-03-05T18:37:42.993Z,661.00
2023-03-05T18:38:42.875Z,662.00
2023-03-05T18:40:42.640Z,662.00
2023-03-05T18:41:42.541Z,660.00
2023-03-05T18:42:42.416Z,660.00
2023-03-05T18:43:42.322Z,660.00
2023-03-05T18:44:42.226Z,656.00
2023-03-05T18:45:42.131Z,655.00
2023-03-05T18:46:41.978Z,656.00
2023-03-05T18:47:41.855Z,658.00
2023-03-05T18:48:41.740Z,658.00
2023-03-05T18:49:41.668Z,658.00
2023-03-05T18:50:41.506Z,660.00
2023-03-05T18:51:41.389Z,659.00
2023-03-05T18:52:41.273Z,657.00
2023-03-05T18:53:41.160Z,654.00
2023-03-05T18:54:41.071Z,652.00
2023-03-05T18:55:41.109Z,652.00
2023-03-05T18:56:40.801Z,657.00
2023-03-05T18:57:40.692Z,658.00
2023-03-05T18:58:40.594Z,659.00
2023-03-05T18:59:40.457Z,661.00
2023-03-05T19:00:40.353Z,661.00
2023-03-05T19:01:40.269Z,660.00
2023-03-05T19:02:40.126Z,661.00
2023-03-05T19:03:40.042Z,661.00
2023-03-05T19:04:39.920Z,661.00
2023-03-05T19:05:39.806Z,661.00
2023-03-05T19:06:39.650Z,661.00
2023-03-05T19:07:39.589Z,663.00
2023-03-05T19:08:39.440Z,665.00
2023-03-05T19:09:39.314Z,665.00
2023-03-05T19:10:40.148Z,666.00
2023-03-05T19:11:39.077Z,666.00
2023-03-05T19:12:38.986Z,665.00
2023-03-05T19:13:38.869Z,668.00
2023-03-05T19:14:38.739Z,669.00
2023-03-05T19:15:38.630Z,668.00
2023-03-05T19:16:38.522Z,666.00
2023-03-05T19:17:38.396Z,664.00
2023-03-05T19:18:38.282Z,664.00
2023-03-05T19:19:38.168Z,665.00
2023-03-05T19:20:38.044Z,664.00
2023-03-05T19:21:37.932Z,660.00
2023-03-05T19:22:37.816Z,660.00
2023-03-05T19:23:37.689Z,662.00
2023-03-05T19:24:37.577Z,663.00
2023-03-05T19:25:37.459Z,663.00
2023-03-05T19:26:37.342Z,665.00
2023-03-05T19:27:37.220Z,668.00
2023-03-05T19:28:37.111Z,667.00
2023-03-05T19:29:37.000Z,666.00
2023-03-05T19:30:36.889Z,666.00
2023-03-05T19:31:36.762Z,666.00
2023-03-05T19:32:36.708Z,664.00
2023-03-05T19:33:36.521Z,666.00
2023-03-05T19:34:36.418Z,665.00
2023-03-05T19:35:36.313Z,663.00
2023-03-05T19:36:37.115Z,663.00
2023-03-05T19:37:36.085Z,664.00
2023-03-05T19:38:35.952Z,661.00
2023-03-05T19:39:35.846Z,661.00
2023-03-05T19:40:35.720Z,662.00
2023-03-05T19:41:35.612Z,664.00
2023-03-05T19:42:35.506Z,665.00
2023-03-05T20:37:29.255Z,655.00
2023-03-05T20:38:29.153Z,656.00
2023-03-05T20:39:29.038Z,656.00
2023-03-05T20:40:28.915Z,654.00
2023-03-05T20:41:28.794Z,651.00
2023-03-05T20:42:28.702Z,653.00
2023-03-05T20:43:28.572Z,654.00
2023-03-05T20:44:28.486Z,656.00
2023-03-05T20:45:28.413Z,655.00
2023-03-05T20:46:28.275Z,655.00
2023-03-05T20:47:28.139Z,655.00
2023-03-05T20:48:28.065Z,653.00
2023-03-05T20:49:27.898Z,657.00
2023-03-05T20:50:27.761Z,654.00
2023-03-05T22:06:18.905Z,646.00
2023-03-05T22:07:18.809Z,644.00
2023-03-05T22:08:18.678Z,645.00
2023-03-05T22:09:18.569Z,646.00
2023-03-05T22:10:18.455Z,646.00
2023-03-05T22:11:18.336Z,647.00
2023-03-05T22:12:18.225Z,646.00
2023-03-05T22:13:18.131Z,645.00
2023-03-05T22:14:18.161Z,646.00
2023-03-05T22:15:17.893Z,644.00
2023-03-05T22:16:17.776Z,643.00
2023-03-05T23:09:11.633Z,639.00
2023-03-05T23:10:11.584Z,638.00
2023-03-05T23:11:11.414Z,637.00
2023-03-05T23:12:11.279Z,636.00
2023-03-05T23:13:11.163Z,636.00
2023-03-05T23:14:11.040Z,636.00
2023-03-05T23:15:10.929Z,638.00
2023-03-05T23:16:10.927Z,640.00
2023-03-05T23:17:10.695Z,639.00
2023-03-05T23:18:10.577Z,639.00
2023-03-05T23:19:10.474Z,637.00
2023-03-05T23:20:10.383Z,635.00
2023-03-05T23:21:10.231Z,634.00
2023-03-05T23:22:10.127Z,632.00
2023-03-05T23:23:09.996Z,629.00
2023-03-05T23:24:09.972Z,630.00
2023-03-05T23:25:09.769Z,633.00
2023-03-05T23:26:09.650Z,632.00
2023-03-05T23:27:09.538Z,630.00
2023-03-05T23:28:09.473Z,629.00
2023-03-05T23:29:09.311Z,630.00
2023-03-05T23:30:09.198Z,633.00
2023-03-05T23:31:09.139Z,633.00
2023-03-05T23:32:09.029Z,634.00
2023-03-05T23:33:08.858Z,633.00
2023-03-05T23:34:08.742Z,634.00
2023-03-05T23:35:08.640Z,633.00
2023-03-05T23:36:08.525Z,631.00
2023-03-05T23:37:08.679Z,628.00
2023-03-05T23:38:09.179Z,626.00
2023-03-05T23:39:08.175Z,627.00
2023-03-05T23:40:08.053Z,627.00
2023-03-05T23:41:08.022Z,624.00
2023-03-05T23:42:07.825Z,624.00
2023-03-05T23:43:07.722Z,621.00
